sensor_id;sensor_type;location;lat;lon;timestamp;P1;durP1;ratioP1;P2;durP2;ratioP2
66425;SDS011;53237;46.158;14.604;2023-10-19T00:00:45;16.08;;;14.57;;
66425;SDS011;53237;46.158;14.604;2023-10-19T00:03:13;16.60;;;15.00;;
66425;SDS011;53237;46.158;14.604;2023-10-19T00:05:39;16.52;;;15.02;;
66425;SDS011;53237;46.158;14.604;2023-10-19T00:08:10;16.00;;;14.40;;
66425;SDS011;53237;46.158;14.604;2023-10-19T00:10:50;16.20;;;14.70;;
66425;SDS011;53237;46.158;14.604;2023-10-19T00:13:32;16.50;;;14.88;;
66425;SDS011;53237;46.158;14.604;2023-10-19T00:16:01;17.55;;;15.93;;
66425;SDS011;53237;46.158;14.604;2023-10-19T00:18:32;16.25;;;14.73;;
66425;SDS011;53237;46.158;14.604;2023-10-19T00:21:00;15.38;;;13.98;;
66425;SDS011;53237;46.158;14.604;2023-10-19T00:23:53;15.38;;;13.88;;
66425;SDS011;53237;46.158;14.604;2023-10-19T00:26:23;15.90;;;14.40;;
66425;SDS011;53237;46.158;14.604;2023-10-19T00:28:55;14.90;;;13.50;;
66425;SDS011;53237;46.158;14.604;2023-10-19T00:31:22;19.23;;;17.33;;
66425;SDS011;53237;46.158;14.604;2023-10-19T00:33:49;15.82;;;14.30;;
66425;SDS011;53237;46.158;14.604;2023-10-19T00:36:16;15.88;;;14.38;;
66425;SDS011;53237;46.158;14.604;2023-10-19T00:38:45;15.20;;;13.80;;
66425;SDS011;53237;46.158;14.604;2023-10-19T00:41:15;15.50;;;14.05;;
66425;SDS011;53237;46.158;14.604;2023-10-19T00:43:57;15.43;;;13.93;;
66425;SDS011;53237;46.158;14.604;2023-10-19T00:46:28;14.10;;;12.80;;
66425;SDS011;53237;46.158;14.604;2023-10-19T00:49:08;15.82;;;14.32;;
66425;SDS011;53237;46.158;14.604;2023-10-19T00:51:35;15.68;;;14.18;;
66425;SDS011;53237;46.158;14.604;2023-10-19T00:54:06;15.32;;;13.90;;
66425;SDS011;53237;46.158;14.604;2023-10-19T00:56:35;20.38;;;18.38;;
66425;SDS011;53237;46.158;14.604;2023-10-19T00:59:02;17.05;;;15.38;;
66425;SDS011;53237;46.158;14.604;2023-10-19T01:01:37;16.05;;;14.45;;
66425;SDS011;53237;46.158;14.604;2023-10-19T01:04:08;18.57;;;16.77;;
66425;SDS011;53237;46.158;14.604;2023-10-19T01:06:39;16.10;;;14.60;;
66425;SDS011;53237;46.158;14.604;2023-10-19T01:09:08;17.40;;;15.80;;
66425;SDS011;53237;46.158;14.604;2023-10-19T01:11:37;21.55;;;19.45;;
66425;SDS011;53237;46.158;14.604;2023-10-19T01:14:17;17.10;;;15.50;;
66425;SDS011;53237;46.158;14.604;2023-10-19T01:16:44;16.75;;;15.15;;
66425;SDS011;53237;46.158;14.604;2023-10-19T01:19:11;16.67;;;15.18;;
66425;SDS011;53237;46.158;14.604;2023-10-19T01:21:37;16.33;;;14.73;;
66425;SDS011;53237;46.158;14.604;2023-10-19T01:24:10;16.73;;;15.02;;
66425;SDS011;53237;46.158;14.604;2023-10-19T01:26:41;15.60;;;14.13;;
66425;SDS011;53237;46.158;14.604;2023-10-19T01:29:07;15.90;;;14.40;;
66425;SDS011;53237;46.158;14.604;2023-10-19T01:31:42;15.93;;;14.52;;
66425;SDS011;53237;46.158;14.604;2023-10-19T01:34:43;16.13;;;14.60;;
66425;SDS011;53237;46.158;14.604;2023-10-19T01:37:09;15.20;;;13.70;;
66425;SDS011;53237;46.158;14.604;2023-10-19T01:39:37;15.43;;;14.02;;
66425;SDS011;53237;46.158;14.604;2023-10-19T01:42:04;15.68;;;14.20;;
66425;SDS011;53237;46.158;14.604;2023-10-19T01:44:31;16.75;;;15.07;;
66425;SDS011;53237;46.158;14.604;2023-10-19T01:47:01;17.00;;;15.40;;
66425;SDS011;53237;46.158;14.604;2023-10-19T01:49:26;15.85;;;14.35;;
66425;SDS011;53237;46.158;14.604;2023-10-19T01:51:53;17.73;;;16.00;;
66425;SDS011;53237;46.158;14.604;2023-10-19T01:54:20;16.10;;;14.55;;
66425;SDS011;53237;46.158;14.604;2023-10-19T01:56:52;16.83;;;15.23;;
66425;SDS011;53237;46.158;14.604;2023-10-19T01:59:25;17.00;;;15.38;;
66425;SDS011;53237;46.158;14.604;2023-10-19T02:01:53;17.83;;;16.02;;
66425;SDS011;53237;46.158;14.604;2023-10-19T02:04:19;17.15;;;15.45;;
66425;SDS011;53237;46.158;14.604;2023-10-19T02:06:46;16.95;;;15.27;;
66425;SDS011;53237;46.158;14.604;2023-10-19T02:09:14;16.58;;;14.98;;
66425;SDS011;53237;46.158;14.604;2023-10-19T02:11:53;18.00;;;16.20;;
66425;SDS011;53237;46.158;14.604;2023-10-19T02:14:24;18.42;;;16.63;;
66425;SDS011;53237;46.158;14.604;2023-10-19T02:16:51;18.13;;;16.33;;
66425;SDS011;53237;46.158;14.604;2023-10-19T02:19:18;17.02;;;15.40;;
66425;SDS011;53237;46.158;14.604;2023-10-19T02:21:45;18.50;;;16.70;;
66425;SDS011;53237;46.158;14.604;2023-10-19T02:24:13;17.13;;;15.48;;
66425;SDS011;53237;46.158;14.604;2023-10-19T02:26:40;17.63;;;15.93;;
66425;SDS011;53237;46.158;14.604;2023-10-19T02:29:06;16.27;;;14.77;;
66425;SDS011;53237;46.158;14.604;2023-10-19T02:31:33;16.48;;;14.80;;
66425;SDS011;53237;46.158;14.604;2023-10-19T02:33:59;18.80;;;16.90;;
66425;SDS011;53237;46.158;14.604;2023-10-19T02:36:26;17.35;;;15.65;;
66425;SDS011;53237;46.158;14.604;2023-10-19T02:38:54;17.42;;;15.77;;
66425;SDS011;53237;46.158;14.604;2023-10-19T02:41:23;17.02;;;15.40;;
66425;SDS011;53237;46.158;14.604;2023-10-19T02:43:49;18.70;;;16.90;;
66425;SDS011;53237;46.158;14.604;2023-10-19T02:46:36;16.65;;;14.98;;
66425;SDS011;53237;46.158;14.604;2023-10-19T02:49:07;17.75;;;16.05;;
66425;SDS011;53237;46.158;14.604;2023-10-19T02:51:37;17.45;;;15.75;;
66425;SDS011;53237;46.158;14.604;2023-10-19T02:54:03;17.60;;;15.90;;
66425;SDS011;53237;46.158;14.604;2023-10-19T02:56:32;18.08;;;16.27;;
66425;SDS011;53237;46.158;14.604;2023-10-19T02:59:00;17.02;;;15.38;;
66425;SDS011;53237;46.158;14.604;2023-10-19T03:01:28;17.85;;;16.05;;
66425;SDS011;53237;46.158;14.604;2023-10-19T03:04:00;17.30;;;15.60;;
66425;SDS011;53237;46.158;14.604;2023-10-19T03:06:27;16.08;;;14.48;;
66425;SDS011;53237;46.158;14.604;2023-10-19T03:08:59;17.35;;;15.65;;
66425;SDS011;53237;46.158;14.604;2023-10-19T03:11:47;17.20;;;15.50;;
66425;SDS011;53237;46.158;14.604;2023-10-19T03:14:17;17.75;;;16.05;;
66425;SDS011;53237;46.158;14.604;2023-10-19T03:16:43;19.63;;;17.63;;
66425;SDS011;53237;46.158;14.604;2023-10-19T03:19:10;20.92;;;18.92;;
66425;SDS011;53237;46.158;14.604;2023-10-19T03:21:38;21.88;;;19.67;;
66425;SDS011;53237;46.158;14.604;2023-10-19T03:24:08;19.83;;;17.92;;
66425;SDS011;53237;46.158;14.604;2023-10-19T03:26:54;17.63;;;15.90;;
66425;SDS011;53237;46.158;14.604;2023-10-19T03:29:24;16.65;;;15.05;;
66425;SDS011;53237;46.158;14.604;2023-10-19T03:31:57;17.35;;;15.70;;
66425;SDS011;53237;46.158;14.604;2023-10-19T03:34:26;17.60;;;15.90;;
66425;SDS011;53237;46.158;14.604;2023-10-19T03:36:56;15.63;;;14.13;;
66425;SDS011;53237;46.158;14.604;2023-10-19T03:39:21;17.27;;;15.68;;
66425;SDS011;53237;46.158;14.604;2023-10-19T03:41:47;16.77;;;15.18;;
66425;SDS011;53237;46.158;14.604;2023-10-19T03:44:16;17.20;;;15.50;;
66425;SDS011;53237;46.158;14.604;2023-10-19T03:46:49;17.38;;;15.68;;
66425;SDS011;53237;46.158;14.604;2023-10-19T03:49:21;17.33;;;15.68;;
66425;SDS011;53237;46.158;14.604;2023-10-19T03:51:47;16.52;;;15.00;;
66425;SDS011;53237;46.158;14.604;2023-10-19T03:54:45;17.80;;;16.00;;
66425;SDS011;53237;46.158;14.604;2023-10-19T03:57:13;16.75;;;15.10;;
66425;SDS011;53237;46.158;14.604;2023-10-19T03:59:47;16.65;;;15.05;;
66425;SDS011;53237;46.158;14.604;2023-10-19T04:02:23;16.55;;;14.95;;
66425;SDS011;53237;46.158;14.604;2023-10-19T04:04:49;16.63;;;15.02;;
66425;SDS011;53237;46.158;14.604;2023-10-19T04:07:17;15.52;;;14.07;;
66425;SDS011;53237;46.158;14.604;2023-10-19T04:09:55;15.27;;;13.88;;
66425;SDS011;53237;46.158;14.604;2023-10-19T04:12:29;15.70;;;14.20;;
66425;SDS011;53237;46.158;14.604;2023-10-19T04:14:56;15.35;;;13.90;;
66425;SDS011;53237;46.158;14.604;2023-10-19T04:17:22;15.73;;;14.25;;
66425;SDS011;53237;46.158;14.604;2023-10-19T04:19:49;16.73;;;15.13;;
66425;SDS011;53237;46.158;14.604;2023-10-19T04:22:23;15.68;;;14.10;;
66425;SDS011;53237;46.158;14.604;2023-10-19T04:24:50;15.38;;;13.98;;
66425;SDS011;53237;46.158;14.604;2023-10-19T04:27:16;15.77;;;14.27;;
66425;SDS011;53237;46.158;14.604;2023-10-19T04:29:42;17.60;;;16.00;;
66425;SDS011;53237;46.158;14.604;2023-10-19T04:32:10;16.05;;;14.55;;
66425;SDS011;53237;46.158;14.604;2023-10-19T04:34:39;14.80;;;13.43;;
66425;SDS011;53237;46.158;14.604;2023-10-19T04:37:05;15.63;;;14.23;;
66425;SDS011;53237;46.158;14.604;2023-10-19T04:39:32;15.13;;;13.73;;
66425;SDS011;53237;46.158;14.604;2023-10-19T04:41:59;15.57;;;14.07;;
66425;SDS011;53237;46.158;14.604;2023-10-19T04:44:25;14.80;;;13.45;;
66425;SDS011;53237;46.158;14.604;2023-10-19T04:46:51;15.25;;;13.85;;
66425;SDS011;53237;46.158;14.604;2023-10-19T04:49:17;14.85;;;13.52;;
66425;SDS011;53237;46.158;14.604;2023-10-19T04:51:43;14.93;;;13.55;;
66425;SDS011;53237;46.158;14.604;2023-10-19T04:54:09;15.15;;;13.75;;
66425;SDS011;53237;46.158;14.604;2023-10-19T04:56:36;15.25;;;13.77;;
66425;SDS011;53237;46.158;14.604;2023-10-19T04:59:02;14.95;;;13.65;;
66425;SDS011;53237;46.158;14.604;2023-10-19T05:04:32;14.18;;;12.88;;
66425;SDS011;53237;46.158;14.604;2023-10-19T05:06:58;14.32;;;13.02;;
66425;SDS011;53237;46.158;14.604;2023-10-19T05:09:26;13.63;;;12.43;;
66425;SDS011;53237;46.158;14.604;2023-10-19T05:11:52;13.80;;;12.57;;
66425;SDS011;53237;46.158;14.604;2023-10-19T05:14:18;14.77;;;13.38;;
66425;SDS011;53237;46.158;14.604;2023-10-19T05:16:45;14.57;;;13.27;;
66425;SDS011;53237;46.158;14.604;2023-10-19T05:19:11;14.00;;;12.68;;
66425;SDS011;53237;46.158;14.604;2023-10-19T05:21:37;14.77;;;13.48;;
66425;SDS011;53237;46.158;14.604;2023-10-19T05:24:03;13.48;;;12.27;;
66425;SDS011;53237;46.158;14.604;2023-10-19T05:26:30;13.88;;;12.57;;
66425;SDS011;53237;46.158;14.604;2023-10-19T05:28:58;14.77;;;13.45;;
66425;SDS011;53237;46.158;14.604;2023-10-19T05:31:24;13.80;;;12.55;;
66425;SDS011;53237;46.158;14.604;2023-10-19T05:33:53;16.35;;;14.82;;
66425;SDS011;53237;46.158;14.604;2023-10-19T05:36:19;15.95;;;14.43;;
66425;SDS011;53237;46.158;14.604;2023-10-19T05:38:45;15.23;;;13.73;;
66425;SDS011;53237;46.158;14.604;2023-10-19T05:41:11;13.85;;;12.57;;
66425;SDS011;53237;46.158;14.604;2023-10-19T05:43:37;16.35;;;14.75;;
66425;SDS011;53237;46.158;14.604;2023-10-19T05:46:19;14.85;;;13.45;;
66425;SDS011;53237;46.158;14.604;2023-10-19T05:48:47;18.15;;;16.45;;
66425;SDS011;53237;46.158;14.604;2023-10-19T05:53:44;20.30;;;18.40;;
66425;SDS011;53237;46.158;14.604;2023-10-19T05:56:11;15.13;;;13.73;;
66425;SDS011;53237;46.158;14.604;2023-10-19T05:58:36;15.55;;;14.05;;
66425;SDS011;53237;46.158;14.604;2023-10-19T06:01:02;14.98;;;13.57;;
66425;SDS011;53237;46.158;14.604;2023-10-19T06:03:28;13.48;;;12.27;;
66425;SDS011;53237;46.158;14.604;2023-10-19T06:05:55;14.35;;;13.05;;
66425;SDS011;53237;46.158;14.604;2023-10-19T06:08:22;14.02;;;12.73;;
66425;SDS011;53237;46.158;14.604;2023-10-19T06:10:51;13.50;;;12.20;;
66425;SDS011;53237;46.158;14.604;2023-10-19T06:13:18;13.68;;;12.35;;
66425;SDS011;53237;46.158;14.604;2023-10-19T06:15:44;13.68;;;12.48;;
66425;SDS011;53237;46.158;14.604;2023-10-19T06:18:10;13.70;;;12.45;;
66425;SDS011;53237;46.158;14.604;2023-10-19T06:20:36;18.85;;;17.00;;
66425;SDS011;53237;46.158;14.604;2023-10-19T06:23:03;14.65;;;13.35;;
66425;SDS011;53237;46.158;14.604;2023-10-19T06:25:29;17.95;;;16.15;;
66425;SDS011;53237;46.158;14.604;2023-10-19T06:27:56;13.70;;;12.40;;
66425;SDS011;53237;46.158;14.604;2023-10-19T06:30:22;13.00;;;11.90;;
66425;SDS011;53237;46.158;14.604;2023-10-19T06:32:49;13.15;;;12.00;;
66425;SDS011;53237;46.158;14.604;2023-10-19T06:35:16;16.95;;;15.43;;
66425;SDS011;53237;46.158;14.604;2023-10-19T06:37:42;15.73;;;14.23;;
66425;SDS011;53237;46.158;14.604;2023-10-19T06:40:09;13.55;;;12.35;;
66425;SDS011;53237;46.158;14.604;2023-10-19T06:42:36;14.35;;;13.05;;
66425;SDS011;53237;46.158;14.604;2023-10-19T06:45:03;13.73;;;12.52;;
66425;SDS011;53237;46.158;14.604;2023-10-19T06:47:29;14.82;;;13.43;;
66425;SDS011;53237;46.158;14.604;2023-10-19T06:49:55;14.35;;;13.05;;
66425;SDS011;53237;46.158;14.604;2023-10-19T06:52:22;16.83;;;15.25;;
66425;SDS011;53237;46.158;14.604;2023-10-19T06:54:48;14.10;;;12.80;;
66425;SDS011;53237;46.158;14.604;2023-10-19T06:57:13;15.00;;;13.60;;
66425;SDS011;53237;46.158;14.604;2023-10-19T06:59:39;15.40;;;14.02;;
66425;SDS011;53237;46.158;14.604;2023-10-19T07:02:05;14.65;;;13.27;;
66425;SDS011;53237;46.158;14.604;2023-10-19T07:04:33;17.35;;;15.77;;
66425;SDS011;53237;46.158;14.604;2023-10-19T07:06:59;14.82;;;13.48;;
66425;SDS011;53237;46.158;14.604;2023-10-19T07:09:25;16.80;;;15.30;;
66425;SDS011;53237;46.158;14.604;2023-10-19T07:11:51;14.50;;;13.20;;
66425;SDS011;53237;46.158;14.604;2023-10-19T07:14:22;18.00;;;16.30;;
66425;SDS011;53237;46.158;14.604;2023-10-19T07:16:48;13.95;;;12.73;;
66425;SDS011;53237;46.158;14.604;2023-10-19T07:19:16;14.93;;;13.55;;
66425;SDS011;53237;46.158;14.604;2023-10-19T07:21:43;16.60;;;15.10;;
66425;SDS011;53237;46.158;14.604;2023-10-19T07:24:13;14.25;;;12.95;;
66425;SDS011;53237;46.158;14.604;2023-10-19T07:26:39;14.27;;;13.00;;
66425;SDS011;53237;46.158;14.604;2023-10-19T07:29:18;16.35;;;14.85;;
66425;SDS011;53237;46.158;14.604;2023-10-19T07:31:44;15.45;;;14.05;;
66425;SDS011;53237;46.158;14.604;2023-10-19T07:34:10;16.75;;;15.15;;
66425;SDS011;53237;46.158;14.604;2023-10-19T07:36:40;13.48;;;12.18;;
66425;SDS011;53237;46.158;14.604;2023-10-19T07:39:07;16.15;;;14.68;;
66425;SDS011;53237;46.158;14.604;2023-10-19T07:41:39;15.48;;;14.00;;
66425;SDS011;53237;46.158;14.604;2023-10-19T07:44:05;15.70;;;14.23;;
66425;SDS011;53237;46.158;14.604;2023-10-19T07:46:31;15.23;;;13.82;;
66425;SDS011;53237;46.158;14.604;2023-10-19T07:48:57;13.63;;;12.32;;
66425;SDS011;53237;46.158;14.604;2023-10-19T07:51:25;14.20;;;12.93;;
66425;SDS011;53237;46.158;14.604;2023-10-19T07:53:51;13.60;;;12.40;;
66425;SDS011;53237;46.158;14.604;2023-10-19T07:56:18;14.75;;;13.48;;
66425;SDS011;53237;46.158;14.604;2023-10-19T07:58:44;14.10;;;12.90;;
66425;SDS011;53237;46.158;14.604;2023-10-19T08:01:11;16.55;;;15.05;;
66425;SDS011;53237;46.158;14.604;2023-10-19T08:03:37;15.88;;;14.38;;
66425;SDS011;53237;46.158;14.604;2023-10-19T08:06:03;15.23;;;13.85;;
66425;SDS011;53237;46.158;14.604;2023-10-19T08:08:29;15.32;;;13.93;;
66425;SDS011;53237;46.158;14.604;2023-10-19T08:11:00;12.90;;;11.80;;
66425;SDS011;53237;46.158;14.604;2023-10-19T08:13:26;17.50;;;15.90;;
66425;SDS011;53237;46.158;14.604;2023-10-19T08:15:52;14.13;;;12.82;;
66425;SDS011;53237;46.158;14.604;2023-10-19T08:18:18;12.50;;;11.35;;
66425;SDS011;53237;46.158;14.604;2023-10-19T08:20:45;14.32;;;13.07;;
66425;SDS011;53237;46.158;14.604;2023-10-19T08:23:11;14.73;;;13.30;;
66425;SDS011;53237;46.158;14.604;2023-10-19T08:28:09;13.82;;;12.52;;
66425;SDS011;53237;46.158;14.604;2023-10-19T08:30:36;15.23;;;13.63;;
66425;SDS011;53237;46.158;14.604;2023-10-19T08:33:02;15.25;;;13.85;;
66425;SDS011;53237;46.158;14.604;2023-10-19T08:35:28;15.90;;;14.40;;
66425;SDS011;53237;46.158;14.604;2023-10-19T08:37:56;15.93;;;14.38;;
66425;SDS011;53237;46.158;14.604;2023-10-19T08:40:22;14.90;;;13.50;;
66425;SDS011;53237;46.158;14.604;2023-10-19T08:42:51;18.83;;;17.02;;
66425;SDS011;53237;46.158;14.604;2023-10-19T08:45:18;16.35;;;14.85;;
66425;SDS011;53237;46.158;14.604;2023-10-19T08:47:56;15.02;;;13.52;;
66425;SDS011;53237;46.158;14.604;2023-10-19T08:50:26;14.73;;;13.30;;
66425;SDS011;53237;46.158;14.604;2023-10-19T08:52:55;13.93;;;12.63;;
66425;SDS011;53237;46.158;14.604;2023-10-19T08:55:22;13.25;;;12.05;;
66425;SDS011;53237;46.158;14.604;2023-10-19T08:57:49;12.15;;;11.05;;
66425;SDS011;53237;46.158;14.604;2023-10-19T09:00:15;10.90;;;9.80;;
66425;SDS011;53237;46.158;14.604;2023-10-19T09:02:45;13.57;;;12.27;;
66425;SDS011;53237;46.158;14.604;2023-10-19T09:05:11;13.85;;;12.55;;
66425;SDS011;53237;46.158;14.604;2023-10-19T09:07:53;11.70;;;10.70;;
66425;SDS011;53237;46.158;14.604;2023-10-19T09:10:22;12.38;;;11.27;;
66425;SDS011;53237;46.158;14.604;2023-10-19T09:15:27;10.38;;;9.48;;
66425;SDS011;53237;46.158;14.604;2023-10-19T09:17:55;9.77;;;8.88;;
66425;SDS011;53237;46.158;14.604;2023-10-19T09:20:21;10.63;;;9.63;;
66425;SDS011;53237;46.158;14.604;2023-10-19T09:22:53;8.68;;;7.97;;
66425;SDS011;53237;46.158;14.604;2023-10-19T09:25:19;9.68;;;8.77;;
66425;SDS011;53237;46.158;14.604;2023-10-19T09:27:46;9.88;;;9.02;;
66425;SDS011;53237;46.158;14.604;2023-10-19T09:30:13;9.85;;;8.95;;
66425;SDS011;53237;46.158;14.604;2023-10-19T09:32:46;9.50;;;8.70;;
66425;SDS011;53237;46.158;14.604;2023-10-19T09:35:16;10.30;;;9.40;;
66425;SDS011;53237;46.158;14.604;2023-10-19T09:37:44;15.43;;;13.93;;
66425;SDS011;53237;46.158;14.604;2023-10-19T09:40:10;13.38;;;12.18;;
66425;SDS011;53237;46.158;14.604;2023-10-19T09:42:39;12.93;;;11.73;;
66425;SDS011;53237;46.158;14.604;2023-10-19T09:45:11;11.35;;;10.15;;
66425;SDS011;53237;46.158;14.604;2023-10-19T09:47:41;9.15;;;8.35;;
66425;SDS011;53237;46.158;14.604;2023-10-19T09:50:08;9.07;;;8.27;;
66425;SDS011;53237;46.158;14.604;2023-10-19T09:52:36;9.60;;;8.70;;
66425;SDS011;53237;46.158;14.604;2023-10-19T09:57:39;10.52;;;9.57;;
66425;SDS011;53237;46.158;14.604;2023-10-19T10:00:10;9.93;;;8.98;;
66425;SDS011;53237;46.158;14.604;2023-10-19T10:02:38;9.85;;;8.95;;
66425;SDS011;53237;46.158;14.604;2023-10-19T10:05:07;9.52;;;8.68;;
66425;SDS011;53237;46.158;14.604;2023-10-19T10:08:27;12.88;;;11.65;;
66425;SDS011;53237;46.158;14.604;2023-10-19T10:10:37;13.25;;;12.05;;
66425;SDS011;53237;46.158;14.604;2023-10-19T10:15:49;10.27;;;9.38;;
66425;SDS011;53237;46.158;14.604;2023-10-19T10:18:15;10.27;;;9.27;;
66425;SDS011;53237;46.158;14.604;2023-10-19T10:20:41;9.20;;;8.45;;
66425;SDS011;53237;46.158;14.604;2023-10-19T10:23:17;10.27;;;9.27;;
66425;SDS011;53237;46.158;14.604;2023-10-19T10:25:46;10.07;;;9.18;;
66425;SDS011;53237;46.158;14.604;2023-10-19T10:28:16;9.23;;;8.43;;
66425;SDS011;53237;46.158;14.604;2023-10-19T10:33:37;11.40;;;10.40;;
66425;SDS011;53237;46.158;14.604;2023-10-19T10:36:07;16.00;;;14.50;;
66425;SDS011;53237;46.158;14.604;2023-10-19T10:38:35;15.63;;;14.17;;
66425;SDS011;53237;46.158;14.604;2023-10-19T10:41:01;12.88;;;11.77;;
66425;SDS011;53237;46.158;14.604;2023-10-19T10:43:27;14.63;;;13.23;;
66425;SDS011;53237;46.158;14.604;2023-10-19T10:46:03;14.85;;;13.45;;
66425;SDS011;53237;46.158;14.604;2023-10-19T10:48:29;15.32;;;13.93;;
66425;SDS011;53237;46.158;14.604;2023-10-19T10:50:55;14.60;;;13.30;;
66425;SDS011;53237;46.158;14.604;2023-10-19T10:53:22;12.73;;;11.63;;
66425;SDS011;53237;46.158;14.604;2023-10-19T10:55:52;11.07;;;10.18;;
66425;SDS011;53237;46.158;14.604;2023-10-19T10:58:19;11.95;;;10.80;;
66425;SDS011;53237;46.158;14.604;2023-10-19T11:00:46;14.05;;;12.65;;
66425;SDS011;53237;46.158;14.604;2023-10-19T11:03:14;10.98;;;9.98;;
66425;SDS011;53237;46.158;14.604;2023-10-19T11:05:41;9.82;;;8.93;;
66425;SDS011;53237;46.158;14.604;2023-10-19T11:08:11;9.02;;;8.23;;
66425;SDS011;53237;46.158;14.604;2023-10-19T11:10:46;12.20;;;11.00;;
66425;SDS011;53237;46.158;14.604;2023-10-19T11:13:13;10.95;;;10.05;;
66425;SDS011;53237;46.158;14.604;2023-10-19T11:15:47;10.85;;;9.85;;
66425;SDS011;53237;46.158;14.604;2023-10-19T11:18:27;9.93;;;9.13;;
66425;SDS011;53237;46.158;14.604;2023-10-19T11:20:54;9.52;;;8.73;;
66425;SDS011;53237;46.158;14.604;2023-10-19T11:23:23;9.10;;;8.30;;
66425;SDS011;53237;46.158;14.604;2023-10-19T11:25:59;9.20;;;8.40;;
66425;SDS011;53237;46.158;14.604;2023-10-19T11:28:27;10.40;;;9.50;;
66425;SDS011;53237;46.158;14.604;2023-10-19T11:31:19;10.13;;;9.23;;
66425;SDS011;53237;46.158;14.604;2023-10-19T11:33:44;9.18;;;8.40;;
66425;SDS011;53237;46.158;14.604;2023-10-19T11:36:11;8.05;;;7.35;;
66425;SDS011;53237;46.158;14.604;2023-10-19T11:38:44;9.30;;;8.50;;
66425;SDS011;53237;46.158;14.604;2023-10-19T11:41:13;8.73;;;7.85;;
66425;SDS011;53237;46.158;14.604;2023-10-19T11:43:40;9.20;;;8.40;;
66425;SDS011;53237;46.158;14.604;2023-10-19T11:46:06;8.82;;;8.13;;
66425;SDS011;53237;46.158;14.604;2023-10-19T11:48:33;10.95;;;10.05;;
66425;SDS011;53237;46.158;14.604;2023-10-19T11:51:00;10.18;;;9.27;;
66425;SDS011;53237;46.158;14.604;2023-10-19T11:53:29;11.55;;;10.55;;
66425;SDS011;53237;46.158;14.604;2023-10-19T11:55:58;9.18;;;8.38;;
66425;SDS011;53237;46.158;14.604;2023-10-19T11:58:24;8.80;;;8.00;;
66425;SDS011;53237;46.158;14.604;2023-10-19T12:00:50;9.23;;;8.43;;
66425;SDS011;53237;46.158;14.604;2023-10-19T12:03:16;14.93;;;13.48;;
66425;SDS011;53237;46.158;14.604;2023-10-19T12:05:44;11.00;;;9.95;;
66425;SDS011;53237;46.158;14.604;2023-10-19T12:08:10;10.30;;;9.40;;
66425;SDS011;53237;46.158;14.604;2023-10-19T12:10:36;9.40;;;8.60;;
66425;SDS011;53237;46.158;14.604;2023-10-19T12:13:03;9.93;;;9.02;;
66425;SDS011;53237;46.158;14.604;2023-10-19T12:15:30;10.25;;;9.32;;
66425;SDS011;53237;46.158;14.604;2023-10-19T12:17:57;14.68;;;13.18;;
66425;SDS011;53237;46.158;14.604;2023-10-19T12:20:23;13.15;;;11.95;;
66425;SDS011;53237;46.158;14.604;2023-10-19T12:22:49;11.30;;;10.30;;
66425;SDS011;53237;46.158;14.604;2023-10-19T12:25:21;15.07;;;13.77;;
66425;SDS011;53237;46.158;14.604;2023-10-19T12:27:54;13.77;;;12.57;;
66425;SDS011;53237;46.158;14.604;2023-10-19T12:30:20;10.13;;;9.23;;
66425;SDS011;53237;46.158;14.604;2023-10-19T12:32:50;10.05;;;9.15;;
66425;SDS011;53237;46.158;14.604;2023-10-19T12:35:16;12.18;;;11.00;;
66425;SDS011;53237;46.158;14.604;2023-10-19T12:37:45;14.93;;;13.63;;
66425;SDS011;53237;46.158;14.604;2023-10-19T12:40:13;15.77;;;14.18;;
66425;SDS011;53237;46.158;14.604;2023-10-19T12:42:51;16.15;;;14.65;;
66425;SDS011;53237;46.158;14.604;2023-10-19T12:45:20;15.73;;;14.27;;
66425;SDS011;53237;46.158;14.604;2023-10-19T12:47:46;13.80;;;12.52;;
66425;SDS011;53237;46.158;14.604;2023-10-19T12:50:12;12.40;;;11.30;;
66425;SDS011;53237;46.158;14.604;2023-10-19T12:52:38;10.93;;;9.93;;
66425;SDS011;53237;46.158;14.604;2023-10-19T12:55:05;10.60;;;9.60;;
66425;SDS011;53237;46.158;14.604;2023-10-19T12:57:32;10.73;;;9.82;;
66425;SDS011;53237;46.158;14.604;2023-10-19T12:59:58;13.75;;;12.55;;
66425;SDS011;53237;46.158;14.604;2023-10-19T13:02:47;10.30;;;9.40;;
66425;SDS011;53237;46.158;14.604;2023-10-19T13:05:13;9.88;;;8.98;;
66425;SDS011;53237;46.158;14.604;2023-10-19T13:07:43;12.93;;;11.70;;
66425;SDS011;53237;46.158;14.604;2023-10-19T13:10:09;15.38;;;13.98;;
66425;SDS011;53237;46.158;14.604;2023-10-19T13:12:36;11.15;;;10.10;;
66425;SDS011;53237;46.158;14.604;2023-10-19T13:15:03;10.23;;;9.32;;
66425;SDS011;53237;46.158;14.604;2023-10-19T13:17:32;14.00;;;12.80;;
66425;SDS011;53237;46.158;14.604;2023-10-19T13:19:59;9.68;;;8.88;;
66425;SDS011;53237;46.158;14.604;2023-10-19T13:22:31;10.95;;;9.95;;
66425;SDS011;53237;46.158;14.604;2023-10-19T13:24:58;9.35;;;8.48;;
66425;SDS011;53237;46.158;14.604;2023-10-19T13:27:24;9.52;;;8.73;;
66425;SDS011;53237;46.158;14.604;2023-10-19T13:29:52;8.68;;;7.95;;
66425;SDS011;53237;46.158;14.604;2023-10-19T13:32:18;8.68;;;7.93;;
66425;SDS011;53237;46.158;14.604;2023-10-19T13:34:44;8.30;;;7.60;;
66425;SDS011;53237;46.158;14.604;2023-10-19T13:37:10;10.40;;;9.50;;
66425;SDS011;53237;46.158;14.604;2023-10-19T13:39:36;9.32;;;8.48;;
66425;SDS011;53237;46.158;14.604;2023-10-19T13:42:04;9.25;;;8.35;;
66425;SDS011;53237;46.158;14.604;2023-10-19T13:44:32;9.25;;;8.45;;
66425;SDS011;53237;46.158;14.604;2023-10-19T13:46:58;10.40;;;9.50;;
66425;SDS011;53237;46.158;14.604;2023-10-19T13:49:24;8.85;;;8.05;;
66425;SDS011;53237;46.158;14.604;2023-10-19T13:51:50;9.48;;;8.68;;
66425;SDS011;53237;46.158;14.604;2023-10-19T13:54:17;9.98;;;9.07;;
66425;SDS011;53237;46.158;14.604;2023-10-19T13:56:43;10.80;;;9.80;;
66425;SDS011;53237;46.158;14.604;2023-10-19T13:59:09;9.25;;;8.45;;
66425;SDS011;53237;46.158;14.604;2023-10-19T14:01:36;13.35;;;12.07;;
66425;SDS011;53237;46.158;14.604;2023-10-19T14:04:02;11.70;;;10.68;;
66425;SDS011;53237;46.158;14.604;2023-10-19T14:06:28;17.73;;;16.02;;
66425;SDS011;53237;46.158;14.604;2023-10-19T14:08:55;15.27;;;13.88;;
66425;SDS011;53237;46.158;14.604;2023-10-19T14:11:21;17.98;;;16.17;;
66425;SDS011;53237;46.158;14.604;2023-10-19T14:13:48;14.82;;;13.35;;
66425;SDS011;53237;46.158;14.604;2023-10-19T14:16:17;14.18;;;12.88;;
66425;SDS011;53237;46.158;14.604;2023-10-19T14:18:43;14.60;;;13.30;;
66425;SDS011;53237;46.158;14.604;2023-10-19T14:21:13;13.30;;;12.02;;
66425;SDS011;53237;46.158;14.604;2023-10-19T14:23:39;12.98;;;11.85;;
66425;SDS011;53237;46.158;14.604;2023-10-19T14:26:06;12.63;;;11.52;;
66425;SDS011;53237;46.158;14.604;2023-10-19T14:28:34;15.90;;;14.40;;
66425;SDS011;53237;46.158;14.604;2023-10-19T14:31:00;15.30;;;13.90;;
66425;SDS011;53237;46.158;14.604;2023-10-19T14:33:27;15.25;;;13.85;;
66425;SDS011;53237;46.158;14.604;2023-10-19T14:35:53;15.35;;;13.82;;
66425;SDS011;53237;46.158;14.604;2023-10-19T14:38:19;10.20;;;9.32;;
66425;SDS011;53237;46.158;14.604;2023-10-19T14:40:45;12.43;;;11.32;;